createdAt,value
2023-01-29T00:03:45.047Z,6.28
2023-01-29T00:08:48.011Z,3.63
2023-01-29T00:13:51.033Z,5.93
2023-01-29T00:18:52.744Z,5.38
2023-01-29T00:23:55.732Z,6.00
2023-01-29T00:28:57.302Z,5.70
2023-01-29T00:33:58.968Z,4.47
2023-01-29T00:39:02.046Z,5.07
2023-01-29T00:44:03.621Z,4.93
2023-01-29T00:49:06.471Z,5.90
2023-01-29T00:54:09.470Z,7.38
2023-01-29T00:59:11.044Z,6.65
2023-01-29T01:04:12.991Z,6.03
2023-01-29T01:09:15.958Z,7.22
2023-01-29T01:14:17.665Z,5.97
2023-01-29T01:19:19.173Z,6.93
2023-01-29T01:24:22.089Z,5.78
2023-01-29T01:29:23.666Z,6.30
2023-01-29T01:34:25.253Z,6.35
2023-01-29T01:39:33.456Z,4.43
2023-01-29T01:45:05.766Z,7.22
2023-01-29T01:50:11.470Z,4.80
2023-01-29T01:55:17.850Z,5.15
2023-01-29T02:00:21.933Z,4.85
2023-01-29T02:05:25.146Z,5.95
2023-01-29T02:10:35.310Z,5.22
2023-01-29T02:15:36.855Z,6.45
2023-01-29T02:20:42.146Z,4.80
2023-01-29T02:26:04.229Z,7.38
2023-01-29T02:31:16.653Z,9.23
2023-01-29T02:36:27.742Z,8.95
2023-01-29T02:41:35.472Z,7.50
2023-01-29T02:46:43.237Z,8.82
2023-01-29T02:51:51.296Z,8.73
2023-01-29T02:56:56.277Z,9.10
2023-01-29T03:02:05.213Z,9.27
2023-01-29T03:07:10.280Z,9.65
2023-01-29T03:12:20.174Z,6.57
2023-01-29T03:17:30.301Z,7.20
2023-01-29T03:22:32.954Z,7.15
2023-01-29T03:27:41.442Z,7.22
2023-01-29T03:32:46.628Z,6.75
2023-01-29T03:37:49.279Z,8.63
2023-01-29T03:42:59.485Z,10.02
2023-01-29T03:48:08.450Z,9.40
2023-01-29T03:53:20.275Z,9.80
2023-01-29T03:58:27.072Z,10.25
2023-01-29T04:03:34.970Z,10.25
2023-01-29T04:08:45.343Z,11.60
2023-01-29T04:13:47.664Z,11.10
2023-01-29T04:18:50.833Z,11.23
2023-01-29T04:23:52.495Z,11.48
2023-01-29T04:29:16.100Z,7.30
2023-01-29T04:34:25.913Z,6.60
2023-01-29T04:39:35.151Z,8.00
2023-01-29T04:44:42.203Z,8.80
2023-01-29T05:00:49.976Z,6.10
2023-01-29T05:05:55.694Z,8.20
2023-01-29T05:10:59.417Z,7.80
2023-01-29T05:16:05.341Z,7.10
2023-01-29T05:21:09.395Z,6.65
2023-01-29T05:26:11.927Z,6.85
2023-01-29T05:31:13.570Z,8.80
2023-01-29T05:36:16.481Z,8.73
2023-01-29T05:41:17.943Z,9.02
2023-01-29T05:46:19.529Z,10.00
2023-01-29T05:51:22.719Z,9.18
2023-01-29T05:56:24.221Z,8.63
2023-01-29T06:01:26.362Z,9.48
2023-01-29T06:06:29.248Z,9.70
2023-01-29T06:11:30.736Z,10.55
2023-01-29T06:16:32.302Z,10.25
2023-01-29T06:21:35.164Z,10.25
2023-01-29T06:26:36.807Z,10.00
2023-01-29T06:31:39.499Z,10.70
2023-01-29T06:36:42.828Z,9.55
2023-01-29T06:41:44.299Z,9.52
2023-01-29T06:46:45.769Z,11.68
2023-01-29T06:51:48.657Z,10.50
2023-01-29T06:56:50.285Z,12.57
2023-01-29T07:01:51.838Z,12.18
2023-01-29T07:06:54.772Z,13.30
2023-01-29T07:11:56.374Z,10.23
2023-01-29T07:16:57.911Z,8.45
2023-01-29T07:22:00.784Z,9.63
2023-01-29T07:27:02.395Z,11.32
2023-01-29T07:32:04.461Z,14.30
2023-01-29T07:37:07.703Z,18.52
2023-01-29T07:42:09.239Z,13.52
2023-01-29T07:47:12.098Z,18.50
2023-01-29T07:52:15.051Z,12.82
2023-01-29T07:57:16.587Z,10.30
2023-01-29T08:02:18.165Z,10.63
2023-01-29T08:07:21.220Z,12.43
2023-01-29T08:12:22.841Z,11.73
2023-01-29T08:17:24.414Z,11.10
2023-01-29T08:22:27.343Z,17.52
2023-01-29T08:27:28.864Z,12.45
2023-01-29T08:32:31.835Z,12.10
2023-01-29T08:37:34.944Z,10.13
2023-01-29T08:42:36.516Z,10.10
2023-01-29T08:47:37.996Z,12.45
2023-01-29T08:52:40.937Z,8.85
2023-01-29T08:57:43.636Z,10.30
2023-01-29T09:02:45.247Z,11.68
2023-01-29T09:07:48.227Z,17.60
2023-01-29T09:12:49.774Z,11.10
2023-01-29T09:17:51.325Z,11.00
2023-01-29T09:22:54.203Z,9.40
2023-01-29T09:27:55.803Z,9.90
2023-01-29T09:32:57.329Z,11.27
2023-01-29T09:38:00.363Z,12.07
2023-01-29T09:43:06.890Z,10.32
2023-01-29T09:48:12.791Z,9.65
2023-01-29T09:53:19.967Z,11.07
2023-01-29T09:58:28.860Z,4.00
2023-01-29T10:03:44.949Z,8.07
2023-01-29T10:09:07.639Z,8.40
2023-01-29T10:14:18.114Z,9.75
2023-01-29T10:19:40.982Z,9.48
2023-01-29T10:24:52.606Z,10.38
2023-01-29T10:29:56.347Z,9.70
2023-01-29T10:35:02.495Z,9.90
2023-01-29T10:40:18.624Z,11.77
2023-01-29T10:45:30.193Z,12.20
2023-01-29T10:50:46.358Z,10.70
2023-01-29T10:56:05.801Z,10.95
2023-01-29T11:01:12.867Z,21.17
2023-01-29T11:06:19.064Z,12.73
2023-01-29T11:11:24.525Z,13.98
2023-01-29T11:16:27.248Z,12.00
2023-01-29T11:21:29.649Z,13.60
2023-01-29T11:26:35.492Z,13.65
2023-01-29T11:31:38.556Z,13.43
2023-01-29T11:36:40.557Z,13.02
2023-01-29T11:41:49.028Z,13.25
2023-01-29T11:46:50.609Z,13.32
2023-01-29T11:51:54.257Z,13.48
2023-01-29T11:56:58.132Z,13.70
2023-01-29T12:02:10.744Z,20.67
2023-01-29T12:07:16.383Z,14.40
2023-01-29T12:12:28.163Z,13.88
2023-01-29T12:17:34.196Z,13.93
2023-01-29T12:22:42.799Z,13.07
2023-01-29T12:27:49.411Z,11.68
2023-01-29T12:32:56.589Z,12.47
2023-01-29T12:38:03.020Z,16.00
2023-01-29T12:43:15.203Z,14.32
2023-01-29T12:48:24.920Z,17.02
2023-01-29T12:53:32.417Z,17.70
2023-01-29T13:03:49.657Z,24.95
2023-01-29T13:08:55.178Z,20.17
2023-01-29T13:14:00.708Z,18.13
2023-01-29T13:19:05.818Z,23.48
2023-01-29T13:24:15.284Z,22.20
2023-01-29T13:29:24.528Z,22.15
2023-01-29T13:34:29.682Z,21.60
2023-01-29T13:39:34.040Z,20.60
2023-01-29T13:44:40.569Z,18.92
2023-01-29T13:49:46.247Z,21.00
2023-01-29T13:54:55.541Z,20.73
2023-01-29T13:59:58.537Z,22.90
2023-01-29T14:05:40.811Z,18.95
2023-01-29T14:10:43.614Z,16.95
2023-01-29T14:16:24.993Z,18.35
2023-01-29T14:21:30.613Z,19.13
2023-01-29T14:26:34.649Z,16.35
2023-01-29T14:31:42.350Z,16.48
2023-01-29T14:36:46.768Z,16.95
2023-01-29T14:41:50.699Z,17.50
2023-01-29T14:46:53.495Z,22.38
2023-01-29T14:51:56.931Z,21.48
2023-01-29T14:57:01.692Z,21.88
2023-01-29T15:02:16.097Z,29.58
2023-01-29T15:07:29.794Z,19.38
2023-01-29T15:12:39.079Z,22.17
2023-01-29T15:17:52.174Z,17.73
2023-01-29T15:22:54.788Z,15.90
2023-01-29T15:27:58.290Z,21.05
2023-01-29T15:33:02.646Z,17.58
2023-01-29T15:38:06.517Z,17.88
2023-01-29T15:43:20.821Z,18.15
2023-01-29T15:48:32.760Z,16.45
2023-01-29T15:53:37.917Z,15.15
2023-01-29T15:58:40.236Z,13.88
2023-01-29T16:03:44.125Z,15.30
2023-01-29T16:08:50.561Z,15.98
2023-01-29T16:13:53.865Z,16.70
2023-01-29T16:19:02.573Z,17.25
2023-01-29T16:24:07.994Z,16.05
2023-01-29T16:29:13.904Z,18.98
2023-01-29T16:34:25.389Z,32.92
2023-01-29T16:39:31.780Z,45.67
2023-01-29T16:44:36.512Z,21.25
2023-01-29T16:49:49.898Z,19.20
2023-01-29T16:54:51.963Z,15.98
2023-01-29T16:59:56.439Z,15.70
2023-01-29T17:05:03.096Z,17.65
2023-01-29T17:10:06.591Z,16.83
2023-01-29T17:15:30.136Z,19.85
2023-01-29T17:20:33.171Z,14.85
2023-01-29T17:25:34.735Z,16.10
2023-01-29T17:30:39.118Z,14.40
2023-01-29T17:35:44.115Z,23.52
2023-01-29T17:40:49.792Z,15.40
2023-01-29T17:45:51.527Z,15.70
2023-01-29T17:50:56.694Z,15.65
2023-01-29T17:55:58.367Z,15.38
2023-01-29T18:01:00.128Z,13.77
2023-01-29T18:06:03.303Z,16.02
2023-01-29T18:11:05.152Z,17.70
2023-01-29T18:16:07.158Z,14.15
2023-01-29T18:21:10.015Z,14.27
2023-01-29T18:26:12.570Z,13.07
2023-01-29T18:31:14.601Z,14.80
2023-01-29T18:36:17.802Z,18.17
2023-01-29T18:41:19.412Z,12.98
2023-01-29T18:46:20.951Z,13.07
2023-01-29T18:51:24.027Z,13.43
2023-01-29T18:56:25.688Z,14.50
2023-01-29T19:01:27.361Z,14.10
2023-01-29T19:06:32.870Z,14.43
2023-01-29T19:11:34.395Z,17.52
2023-01-29T19:16:35.936Z,16.05
2023-01-29T19:21:38.807Z,15.45
2023-01-29T19:26:40.350Z,13.60
2023-01-29T19:31:42.157Z,14.80
2023-01-29T19:36:45.086Z,13.98
2023-01-29T19:41:46.684Z,15.05
2023-01-29T19:46:48.380Z,13.40
2023-01-29T19:51:51.273Z,15.73
2023-01-29T19:56:52.836Z,16.40
2023-01-29T20:01:54.468Z,15.38
2023-01-29T20:06:57.592Z,17.48
2023-01-29T20:11:59.426Z,16.17
2023-01-29T20:17:01.053Z,16.00
2023-01-29T20:22:03.966Z,16.75
2023-01-29T20:27:06.447Z,19.90
2023-01-29T20:32:08.041Z,17.20
2023-01-29T20:37:11.275Z,19.40
2023-01-29T20:42:13.474Z,18.05
2023-01-29T20:47:14.998Z,17.20
2023-01-29T20:52:17.951Z,14.60
2023-01-29T20:57:19.571Z,15.98
2023-01-29T21:02:21.159Z,15.55
2023-01-29T21:07:24.171Z,16.23
2023-01-29T21:12:25.790Z,16.25
2023-01-29T21:17:28.200Z,17.30
2023-01-29T21:22:31.447Z,14.85
2023-01-29T21:27:33.038Z,15.90
2023-01-29T21:32:34.594Z,19.38
2023-01-29T21:37:37.546Z,16.15
2023-01-29T21:42:39.159Z,16.88
2023-01-29T21:47:40.647Z,16.42
2023-01-29T21:52:43.614Z,14.27
2023-01-29T21:57:45.241Z,16.42
2023-01-29T22:02:47.058Z,15.20
2023-01-29T22:07:50.844Z,16.45
2023-01-29T22:12:52.714Z,15.23
2023-01-29T22:17:54.220Z,15.10
2023-01-29T22:22:58.523Z,15.80
2023-01-29T22:28:00.125Z,15.70
2023-01-29T22:33:01.816Z,15.90
2023-01-29T22:38:04.764Z,16.38
2023-01-29T22:43:06.337Z,14.98
2023-01-29T22:48:08.283Z,15.15
2023-01-29T22:53:11.212Z,24.25
2023-01-29T22:58:12.735Z,13.88
2023-01-29T23:03:14.307Z,15.32
2023-01-29T23:08:17.301Z,14.48
2023-01-29T23:13:19.023Z,15.23
2023-01-29T23:18:20.507Z,15.27
2023-01-29T23:23:23.403Z,14.00
2023-01-29T23:28:24.893Z,12.43
2023-01-29T23:33:26.528Z,15.27
2023-01-29T23:38:29.473Z,13.93
2023-01-29T23:43:31.207Z,13.93
2023-01-29T23:48:32.737Z,15.90
2023-01-29T23:53:35.619Z,15.60
2023-01-29T23:58:37.107Z,15.35
